Sunkist, California
Current Conditions -  °F | °C
As of 3:53 PM on Tuesday 25 Nov 2014 (Local Time) from KFUL Reporting Station
Clear Clear  
Wind Chill: 27°   Ceiling: Unl
Heat Index: 27°   Visibility: 10mi
Dew Point: -13°   Wind: 3mph
Humidity: 6%   Direction: 280°W
Pressure: 30.24"   Gusts: NA
Location:  33.8393°N, 117.87°W
Report Text: KFUL 252353Z 28003KT 10SM CLR 27/M13 A3024 RMK AO2 SLP239 T02671133 10283 20233 56010
Loading
Personal Weather Stations






























Interactive Weather Map New forecast layout! Learn more

10-Day Weather Forecast

Advertisements
Track Severe Weather on mobile